sensor_id;sensor_type;location;lat;lon;timestamp;P1;durP1;ratioP1;P2;durP2;ratioP2
11614;SDS011;5863;52.832;4.758;2023-02-03T00:01:44;23.70;;;3.75;;
11614;SDS011;5863;52.832;4.758;2023-02-03T00:04:12;12.27;;;3.35;;
11614;SDS011;5863;52.832;4.758;2023-02-03T00:06:41;16.55;;;3.40;;
11614;SDS011;5863;52.832;4.758;2023-02-03T00:09:08;17.60;;;3.58;;
11614;SDS011;5863;52.832;4.758;2023-02-03T00:11:35;18.73;;;3.88;;
11614;SDS011;5863;52.832;4.758;2023-02-03T00:14:02;15.93;;;3.10;;
11614;SDS011;5863;52.832;4.758;2023-02-03T00:16:32;11.98;;;3.35;;
11614;SDS011;5863;52.832;4.758;2023-02-03T00:18:59;14.88;;;3.45;;
11614;SDS011;5863;52.832;4.758;2023-02-03T00:21:27;14.63;;;3.28;;
11614;SDS011;5863;52.832;4.758;2023-02-03T00:23:53;17.35;;;3.72;;
11614;SDS011;5863;52.832;4.758;2023-02-03T00:26:20;19.13;;;4.07;;
11614;SDS011;5863;52.832;4.758;2023-02-03T00:28:48;12.52;;;3.45;;
11614;SDS011;5863;52.832;4.758;2023-02-03T00:31:14;17.80;;;3.50;;
11614;SDS011;5863;52.832;4.758;2023-02-03T00:33:42;15.20;;;3.70;;
11614;SDS011;5863;52.832;4.758;2023-02-03T00:36:09;16.95;;;3.55;;
11614;SDS011;5863;52.832;4.758;2023-02-03T00:38:38;14.30;;;3.88;;
11614;SDS011;5863;52.832;4.758;2023-02-03T00:41:04;15.63;;;3.25;;
11614;SDS011;5863;52.832;4.758;2023-02-03T00:43:31;14.80;;;3.55;;
11614;SDS011;5863;52.832;4.758;2023-02-03T00:45:59;11.60;;;3.53;;
11614;SDS011;5863;52.832;4.758;2023-02-03T00:48:26;15.13;;;3.95;;
11614;SDS011;5863;52.832;4.758;2023-02-03T00:50:53;11.68;;;3.33;;
11614;SDS011;5863;52.832;4.758;2023-02-03T00:53:19;16.88;;;2.95;;
11614;SDS011;5863;52.832;4.758;2023-02-03T00:55:47;15.93;;;3.75;;
11614;SDS011;5863;52.832;4.758;2023-02-03T00:58:14;17.35;;;3.45;;
11614;SDS011;5863;52.832;4.758;2023-02-03T01:00:41;16.58;;;3.88;;
11614;SDS011;5863;52.832;4.758;2023-02-03T01:03:08;18.55;;;3.65;;
11614;SDS011;5863;52.832;4.758;2023-02-03T01:05:35;19.55;;;3.60;;
11614;SDS011;5863;52.832;4.758;2023-02-03T01:08:01;18.23;;;3.28;;
11614;SDS011;5863;52.832;4.758;2023-02-03T01:10:28;12.85;;;3.17;;
11614;SDS011;5863;52.832;4.758;2023-02-03T01:12:57;19.98;;;3.50;;
11614;SDS011;5863;52.832;4.758;2023-02-03T01:15:24;16.30;;;3.17;;
11614;SDS011;5863;52.832;4.758;2023-02-03T01:17:50;16.80;;;3.47;;
11614;SDS011;5863;52.832;4.758;2023-02-03T01:20:17;16.80;;;3.92;;
11614;SDS011;5863;52.832;4.758;2023-02-03T01:22:45;15.60;;;3.63;;
11614;SDS011;5863;52.832;4.758;2023-02-03T01:25:12;13.90;;;3.45;;
11614;SDS011;5863;52.832;4.758;2023-02-03T01:27:38;16.40;;;3.58;;
11614;SDS011;5863;52.832;4.758;2023-02-03T01:30:07;16.15;;;3.78;;
11614;SDS011;5863;52.832;4.758;2023-02-03T01:32:34;18.67;;;4.03;;
11614;SDS011;5863;52.832;4.758;2023-02-03T01:35:02;15.45;;;3.80;;
11614;SDS011;5863;52.832;4.758;2023-02-03T01:37:29;17.33;;;4.00;;
11614;SDS011;5863;52.832;4.758;2023-02-03T01:39:55;25.20;;;3.75;;
11614;SDS011;5863;52.832;4.758;2023-02-03T01:42:22;22.17;;;4.38;;
11614;SDS011;5863;52.832;4.758;2023-02-03T01:44:49;18.48;;;3.80;;
11614;SDS011;5863;52.832;4.758;2023-02-03T01:47:20;19.15;;;3.70;;
11614;SDS011;5863;52.832;4.758;2023-02-03T01:49:52;13.95;;;3.58;;
11614;SDS011;5863;52.832;4.758;2023-02-03T01:52:22;18.27;;;3.58;;
11614;SDS011;5863;52.832;4.758;2023-02-03T01:54:50;16.50;;;3.40;;
11614;SDS011;5863;52.832;4.758;2023-02-03T01:57:20;12.73;;;3.33;;
11614;SDS011;5863;52.832;4.758;2023-02-03T01:59:51;16.65;;;3.58;;
11614;SDS011;5863;52.832;4.758;2023-02-03T02:02:20;18.60;;;3.80;;
11614;SDS011;5863;52.832;4.758;2023-02-03T02:04:49;21.02;;;3.35;;
11614;SDS011;5863;52.832;4.758;2023-02-03T02:07:22;14.25;;;3.80;;
11614;SDS011;5863;52.832;4.758;2023-02-03T02:09:49;21.33;;;3.97;;
11614;SDS011;5863;52.832;4.758;2023-02-03T02:12:16;17.55;;;3.65;;
11614;SDS011;5863;52.832;4.758;2023-02-03T02:14:42;16.35;;;3.88;;
11614;SDS011;5863;52.832;4.758;2023-02-03T02:17:12;12.98;;;3.20;;
11614;SDS011;5863;52.832;4.758;2023-02-03T02:22:59;20.80;;;3.65;;
11614;SDS011;5863;52.832;4.758;2023-02-03T02:25:52;11.77;;;2.83;;
11614;SDS011;5863;52.832;4.758;2023-02-03T02:28:41;21.35;;;3.50;;
11614;SDS011;5863;52.832;4.758;2023-02-03T02:34:21;21.65;;;3.60;;
11614;SDS011;5863;52.832;4.758;2023-02-03T02:36:56;21.02;;;3.55;;
11614;SDS011;5863;52.832;4.758;2023-02-03T02:39:33;20.58;;;3.42;;
11614;SDS011;5863;52.832;4.758;2023-02-03T02:42:05;15.63;;;4.05;;
11614;SDS011;5863;52.832;4.758;2023-02-03T02:44:40;15.52;;;3.38;;
11614;SDS011;5863;52.832;4.758;2023-02-03T02:47:15;22.17;;;4.15;;
11614;SDS011;5863;52.832;4.758;2023-02-03T02:49:45;20.50;;;3.45;;
11614;SDS011;5863;52.832;4.758;2023-02-03T02:52:18;18.75;;;3.60;;
11614;SDS011;5863;52.832;4.758;2023-02-03T02:54:50;13.95;;;3.35;;
11614;SDS011;5863;52.832;4.758;2023-02-03T02:57:19;17.40;;;3.58;;
11614;SDS011;5863;52.832;4.758;2023-02-03T02:59:49;22.42;;;3.60;;
11614;SDS011;5863;52.832;4.758;2023-02-03T03:02:17;21.08;;;3.03;;
11614;SDS011;5863;52.832;4.758;2023-02-03T03:04:44;17.02;;;3.45;;
11614;SDS011;5863;52.832;4.758;2023-02-03T03:07:15;16.67;;;3.47;;
11614;SDS011;5863;52.832;4.758;2023-02-03T03:09:45;16.30;;;3.45;;
11614;SDS011;5863;52.832;4.758;2023-02-03T03:12:16;16.77;;;3.85;;
11614;SDS011;5863;52.832;4.758;2023-02-03T03:14:48;19.60;;;3.47;;
11614;SDS011;5863;52.832;4.758;2023-02-03T03:17:21;18.40;;;3.85;;
11614;SDS011;5863;52.832;4.758;2023-02-03T03:19:52;20.48;;;2.90;;
11614;SDS011;5863;52.832;4.758;2023-02-03T03:22:22;20.25;;;4.20;;
11614;SDS011;5863;52.832;4.758;2023-02-03T03:24:54;16.85;;;3.63;;
11614;SDS011;5863;52.832;4.758;2023-02-03T03:27:28;13.27;;;3.17;;
11614;SDS011;5863;52.832;4.758;2023-02-03T03:30:00;14.55;;;3.40;;
11614;SDS011;5863;52.832;4.758;2023-02-03T03:32:32;17.73;;;3.20;;
11614;SDS011;5863;52.832;4.758;2023-02-03T03:34:59;10.90;;;2.78;;
11614;SDS011;5863;52.832;4.758;2023-02-03T03:37:29;14.68;;;2.97;;
11614;SDS011;5863;52.832;4.758;2023-02-03T03:40:00;15.40;;;2.95;;
11614;SDS011;5863;52.832;4.758;2023-02-03T03:42:33;15.20;;;2.90;;
11614;SDS011;5863;52.832;4.758;2023-02-03T03:45:04;15.73;;;3.20;;
11614;SDS011;5863;52.832;4.758;2023-02-03T03:47:37;15.48;;;2.85;;
11614;SDS011;5863;52.832;4.758;2023-02-03T03:50:09;17.25;;;3.35;;
11614;SDS011;5863;52.832;4.758;2023-02-03T03:52:41;19.40;;;3.40;;
11614;SDS011;5863;52.832;4.758;2023-02-03T03:55:10;22.30;;;3.40;;
11614;SDS011;5863;52.832;4.758;2023-02-03T03:57:40;11.43;;;2.97;;
11614;SDS011;5863;52.832;4.758;2023-02-03T04:00:12;13.73;;;3.17;;
11614;SDS011;5863;52.832;4.758;2023-02-03T04:02:44;16.33;;;3.05;;
11614;SDS011;5863;52.832;4.758;2023-02-03T04:05:15;17.67;;;2.97;;
11614;SDS011;5863;52.832;4.758;2023-02-03T04:07:43;17.90;;;3.38;;
11614;SDS011;5863;52.832;4.758;2023-02-03T04:10:13;14.45;;;3.63;;
11614;SDS011;5863;52.832;4.758;2023-02-03T04:12:45;15.32;;;3.42;;
11614;SDS011;5863;52.832;4.758;2023-02-03T04:15:12;19.83;;;3.78;;
11614;SDS011;5863;52.832;4.758;2023-02-03T04:17:39;17.30;;;3.50;;
11614;SDS011;5863;52.832;4.758;2023-02-03T04:20:07;18.55;;;3.65;;
11614;SDS011;5863;52.832;4.758;2023-02-03T04:22:35;14.82;;;3.58;;
11614;SDS011;5863;52.832;4.758;2023-02-03T04:25:01;18.25;;;3.90;;
11614;SDS011;5863;52.832;4.758;2023-02-03T04:27:28;16.40;;;3.47;;
11614;SDS011;5863;52.832;4.758;2023-02-03T04:29:55;11.80;;;2.85;;
11614;SDS011;5863;52.832;4.758;2023-02-03T04:32:22;12.77;;;3.35;;
11614;SDS011;5863;52.832;4.758;2023-02-03T04:34:48;17.98;;;3.70;;
11614;SDS011;5863;52.832;4.758;2023-02-03T04:37:16;16.75;;;3.35;;
11614;SDS011;5863;52.832;4.758;2023-02-03T04:39:45;24.13;;;3.72;;
11614;SDS011;5863;52.832;4.758;2023-02-03T04:42:11;19.13;;;3.67;;
11614;SDS011;5863;52.832;4.758;2023-02-03T04:44:38;19.52;;;4.13;;
11614;SDS011;5863;52.832;4.758;2023-02-03T04:47:05;15.13;;;3.60;;
11614;SDS011;5863;52.832;4.758;2023-02-03T04:49:31;19.17;;;3.95;;
11614;SDS011;5863;52.832;4.758;2023-02-03T04:51:58;15.48;;;3.25;;
11614;SDS011;5863;52.832;4.758;2023-02-03T04:54:26;17.88;;;3.95;;
11614;SDS011;5863;52.832;4.758;2023-02-03T04:56:53;17.75;;;3.80;;
11614;SDS011;5863;52.832;4.758;2023-02-03T04:59:19;17.80;;;3.58;;
11614;SDS011;5863;52.832;4.758;2023-02-03T05:01:46;14.25;;;3.08;;
11614;SDS011;5863;52.832;4.758;2023-02-03T05:04:13;14.20;;;3.00;;
11614;SDS011;5863;52.832;4.758;2023-02-03T05:06:40;14.98;;;3.58;;
11614;SDS011;5863;52.832;4.758;2023-02-03T05:09:06;17.80;;;3.40;;
11614;SDS011;5863;52.832;4.758;2023-02-03T05:11:34;18.85;;;3.80;;
11614;SDS011;5863;52.832;4.758;2023-02-03T05:14:01;17.92;;;4.05;;
11614;SDS011;5863;52.832;4.758;2023-02-03T05:16:28;18.92;;;3.42;;
11614;SDS011;5863;52.832;4.758;2023-02-03T05:18:54;27.92;;;4.38;;
11614;SDS011;5863;52.832;4.758;2023-02-03T05:21:21;16.52;;;3.50;;
11614;SDS011;5863;52.832;4.758;2023-02-03T05:23:48;20.20;;;3.40;;
11614;SDS011;5863;52.832;4.758;2023-02-03T05:26:15;19.65;;;3.88;;
11614;SDS011;5863;52.832;4.758;2023-02-03T05:28:43;21.08;;;3.95;;
11614;SDS011;5863;52.832;4.758;2023-02-03T05:31:10;18.60;;;4.00;;
11614;SDS011;5863;52.832;4.758;2023-02-03T05:33:36;17.63;;;3.75;;
11614;SDS011;5863;52.832;4.758;2023-02-03T05:36:04;18.38;;;3.60;;
11614;SDS011;5863;52.832;4.758;2023-02-03T05:38:31;18.05;;;3.92;;
11614;SDS011;5863;52.832;4.758;2023-02-03T05:40:58;18.90;;;4.07;;
11614;SDS011;5863;52.832;4.758;2023-02-03T05:43:44;19.48;;;3.83;;
11614;SDS011;5863;52.832;4.758;2023-02-03T05:46:10;18.75;;;3.80;;
11614;SDS011;5863;52.832;4.758;2023-02-03T05:48:37;21.50;;;4.35;;
11614;SDS011;5863;52.832;4.758;2023-02-03T05:51:04;22.23;;;3.80;;
11614;SDS011;5863;52.832;4.758;2023-02-03T05:53:31;17.55;;;3.67;;
11614;SDS011;5863;52.832;4.758;2023-02-03T05:55:57;19.85;;;3.75;;
11614;SDS011;5863;52.832;4.758;2023-02-03T05:58:24;17.92;;;3.97;;
11614;SDS011;5863;52.832;4.758;2023-02-03T06:00:52;17.15;;;3.85;;
11614;SDS011;5863;52.832;4.758;2023-02-03T06:03:19;19.95;;;4.35;;
11614;SDS011;5863;52.832;4.758;2023-02-03T06:05:45;17.63;;;3.70;;
11614;SDS011;5863;52.832;4.758;2023-02-03T06:08:12;26.42;;;4.80;;
11614;SDS011;5863;52.832;4.758;2023-02-03T06:10:38;21.13;;;4.10;;
11614;SDS011;5863;52.832;4.758;2023-02-03T06:13:09;15.32;;;3.80;;
11614;SDS011;5863;52.832;4.758;2023-02-03T06:15:37;12.68;;;3.65;;
11614;SDS011;5863;52.832;4.758;2023-02-03T06:18:05;22.77;;;4.25;;
11614;SDS011;5863;52.832;4.758;2023-02-03T06:20:32;17.15;;;3.63;;
11614;SDS011;5863;52.832;4.758;2023-02-03T06:22:59;24.33;;;4.32;;
11614;SDS011;5863;52.832;4.758;2023-02-03T06:25:26;17.95;;;3.70;;
11614;SDS011;5863;52.832;4.758;2023-02-03T06:27:56;13.23;;;3.63;;
11614;SDS011;5863;52.832;4.758;2023-02-03T06:30:22;18.52;;;3.83;;
11614;SDS011;5863;52.832;4.758;2023-02-03T06:32:49;14.38;;;3.47;;
11614;SDS011;5863;52.832;4.758;2023-02-03T06:35:17;24.65;;;3.95;;
11614;SDS011;5863;52.832;4.758;2023-02-03T06:37:44;18.38;;;4.28;;
11614;SDS011;5863;52.832;4.758;2023-02-03T06:40:11;20.35;;;3.97;;
11614;SDS011;5863;52.832;4.758;2023-02-03T06:42:38;16.63;;;3.60;;
11614;SDS011;5863;52.832;4.758;2023-02-03T06:45:05;20.27;;;3.30;;
11614;SDS011;5863;52.832;4.758;2023-02-03T06:47:32;16.00;;;3.92;;
11614;SDS011;5863;52.832;4.758;2023-02-03T06:49:59;20.50;;;4.35;;
11614;SDS011;5863;52.832;4.758;2023-02-03T06:52:27;20.52;;;5.20;;
11614;SDS011;5863;52.832;4.758;2023-02-03T06:54:54;17.95;;;3.30;;
11614;SDS011;5863;52.832;4.758;2023-02-03T06:57:20;22.77;;;3.95;;
11614;SDS011;5863;52.832;4.758;2023-02-03T06:59:49;19.17;;;3.88;;
11614;SDS011;5863;52.832;4.758;2023-02-03T07:02:16;15.48;;;3.60;;
11614;SDS011;5863;52.832;4.758;2023-02-03T07:04:43;13.95;;;3.58;;
11614;SDS011;5863;52.832;4.758;2023-02-03T07:07:10;17.15;;;4.18;;
11614;SDS011;5863;52.832;4.758;2023-02-03T07:09:38;19.13;;;3.80;;
11614;SDS011;5863;52.832;4.758;2023-02-03T07:12:06;17.33;;;4.32;;
11614;SDS011;5863;52.832;4.758;2023-02-03T07:14:33;18.55;;;4.03;;
11614;SDS011;5863;52.832;4.758;2023-02-03T07:17:00;13.15;;;3.28;;
11614;SDS011;5863;52.832;4.758;2023-02-03T07:19:27;21.23;;;3.65;;
11614;SDS011;5863;52.832;4.758;2023-02-03T07:21:55;16.73;;;4.40;;
11614;SDS011;5863;52.832;4.758;2023-02-03T07:24:21;17.98;;;4.20;;
11614;SDS011;5863;52.832;4.758;2023-02-03T07:26:49;19.58;;;4.18;;
11614;SDS011;5863;52.832;4.758;2023-02-03T07:29:17;19.08;;;3.65;;
11614;SDS011;5863;52.832;4.758;2023-02-03T07:31:44;17.98;;;3.83;;
11614;SDS011;5863;52.832;4.758;2023-02-03T07:34:11;17.02;;;3.88;;
11614;SDS011;5863;52.832;4.758;2023-02-03T07:36:38;25.30;;;4.82;;
11614;SDS011;5863;52.832;4.758;2023-02-03T07:39:05;19.85;;;3.92;;
11614;SDS011;5863;52.832;4.758;2023-02-03T07:41:32;18.60;;;3.88;;
11614;SDS011;5863;52.832;4.758;2023-02-03T07:44:00;18.38;;;3.75;;
11614;SDS011;5863;52.832;4.758;2023-02-03T07:46:26;20.17;;;4.20;;
11614;SDS011;5863;52.832;4.758;2023-02-03T07:48:53;19.30;;;4.03;;
11614;SDS011;5863;52.832;4.758;2023-02-03T07:51:20;21.35;;;4.45;;
11614;SDS011;5863;52.832;4.758;2023-02-03T07:53:46;21.25;;;4.65;;
11614;SDS011;5863;52.832;4.758;2023-02-03T07:56:13;17.35;;;4.20;;
11614;SDS011;5863;52.832;4.758;2023-02-03T07:58:40;17.52;;;3.92;;
11614;SDS011;5863;52.832;4.758;2023-02-03T08:01:12;17.20;;;3.95;;
11614;SDS011;5863;52.832;4.758;2023-02-03T08:03:40;21.88;;;4.05;;
11614;SDS011;5863;52.832;4.758;2023-02-03T08:06:07;18.83;;;3.97;;
11614;SDS011;5863;52.832;4.758;2023-02-03T08:08:34;18.98;;;4.20;;
11614;SDS011;5863;52.832;4.758;2023-02-03T08:11:01;18.60;;;3.92;;
11614;SDS011;5863;52.832;4.758;2023-02-03T08:13:27;20.55;;;4.65;;
11614;SDS011;5863;52.832;4.758;2023-02-03T08:15:54;18.27;;;4.40;;
11614;SDS011;5863;52.832;4.758;2023-02-03T08:18:22;15.00;;;3.95;;
11614;SDS011;5863;52.832;4.758;2023-02-03T08:20:49;20.48;;;3.75;;
11614;SDS011;5863;52.832;4.758;2023-02-03T08:23:16;17.65;;;4.32;;
11614;SDS011;5863;52.832;4.758;2023-02-03T08:25:42;18.27;;;4.32;;
11614;SDS011;5863;52.832;4.758;2023-02-03T08:28:09;22.00;;;4.13;;
11614;SDS011;5863;52.832;4.758;2023-02-03T08:30:36;16.42;;;3.55;;
11614;SDS011;5863;52.832;4.758;2023-02-03T08:33:03;16.45;;;4.00;;
11614;SDS011;5863;52.832;4.758;2023-02-03T08:35:31;18.15;;;4.38;;
11614;SDS011;5863;52.832;4.758;2023-02-03T08:37:58;14.68;;;3.95;;
11614;SDS011;5863;52.832;4.758;2023-02-03T08:40:25;24.63;;;4.25;;
11614;SDS011;5863;52.832;4.758;2023-02-03T08:42:52;21.67;;;4.45;;
11614;SDS011;5863;52.832;4.758;2023-02-03T08:45:19;23.58;;;4.13;;
11614;SDS011;5863;52.832;4.758;2023-02-03T08:47:46;19.45;;;4.25;;
11614;SDS011;5863;52.832;4.758;2023-02-03T08:50:12;18.33;;;3.78;;
11614;SDS011;5863;52.832;4.758;2023-02-03T08:52:40;15.63;;;3.35;;
11614;SDS011;5863;52.832;4.758;2023-02-03T08:55:07;27.45;;;4.47;;
11614;SDS011;5863;52.832;4.758;2023-02-03T08:57:34;20.50;;;4.18;;
11614;SDS011;5863;52.832;4.758;2023-02-03T09:00:02;17.45;;;3.90;;
11614;SDS011;5863;52.832;4.758;2023-02-03T09:02:30;16.55;;;3.67;;
11614;SDS011;5863;52.832;4.758;2023-02-03T09:04:57;19.95;;;3.65;;
11614;SDS011;5863;52.832;4.758;2023-02-03T09:07:23;22.52;;;3.95;;
11614;SDS011;5863;52.832;4.758;2023-02-03T09:09:52;18.52;;;4.38;;
11614;SDS011;5863;52.832;4.758;2023-02-03T09:12:18;21.13;;;3.88;;
11614;SDS011;5863;52.832;4.758;2023-02-03T09:14:45;17.27;;;3.53;;
11614;SDS011;5863;52.832;4.758;2023-02-03T09:17:12;15.70;;;3.67;;
11614;SDS011;5863;52.832;4.758;2023-02-03T09:19:38;19.52;;;4.55;;
11614;SDS011;5863;52.832;4.758;2023-02-03T09:22:05;16.05;;;3.80;;
11614;SDS011;5863;52.832;4.758;2023-02-03T09:24:32;12.32;;;3.78;;
11614;SDS011;5863;52.832;4.758;2023-02-03T09:27:01;15.13;;;3.50;;
11614;SDS011;5863;52.832;4.758;2023-02-03T09:29:27;18.95;;;3.75;;
11614;SDS011;5863;52.832;4.758;2023-02-03T09:31:54;15.82;;;3.63;;
11614;SDS011;5863;52.832;4.758;2023-02-03T09:34:21;15.70;;;3.42;;
11614;SDS011;5863;52.832;4.758;2023-02-03T09:36:48;19.02;;;4.13;;
11614;SDS011;5863;52.832;4.758;2023-02-03T09:39:15;16.45;;;3.85;;
11614;SDS011;5863;52.832;4.758;2023-02-03T09:41:46;17.80;;;3.63;;
11614;SDS011;5863;52.832;4.758;2023-02-03T09:44:27;17.75;;;3.20;;
11614;SDS011;5863;52.832;4.758;2023-02-03T09:46:59;15.82;;;3.80;;
11614;SDS011;5863;52.832;4.758;2023-02-03T09:49:32;14.73;;;3.72;;
11614;SDS011;5863;52.832;4.758;2023-02-03T09:52:04;16.92;;;3.85;;
11614;SDS011;5863;52.832;4.758;2023-02-03T09:54:38;19.63;;;4.32;;
11614;SDS011;5863;52.832;4.758;2023-02-03T09:57:11;17.63;;;4.10;;
11614;SDS011;5863;52.832;4.758;2023-02-03T09:59:43;19.92;;;3.88;;
11614;SDS011;5863;52.832;4.758;2023-02-03T10:02:14;20.95;;;4.55;;
11614;SDS011;5863;52.832;4.758;2023-02-03T10:05:00;17.23;;;4.47;;
11614;SDS011;5863;52.832;4.758;2023-02-03T10:07:33;17.13;;;3.70;;
11614;SDS011;5863;52.832;4.758;2023-02-03T10:10:08;18.52;;;3.58;;
11614;SDS011;5863;52.832;4.758;2023-02-03T10:12:52;13.13;;;3.75;;
11614;SDS011;5863;52.832;4.758;2023-02-03T10:15:40;13.88;;;3.80;;
11614;SDS011;5863;52.832;4.758;2023-02-03T10:18:14;23.05;;;3.75;;
11614;SDS011;5863;52.832;4.758;2023-02-03T10:20:44;14.77;;;3.63;;
11614;SDS011;5863;52.832;4.758;2023-02-03T10:23:15;18.25;;;3.80;;
11614;SDS011;5863;52.832;4.758;2023-02-03T10:25:46;24.15;;;4.05;;
11614;SDS011;5863;52.832;4.758;2023-02-03T10:28:19;23.75;;;4.10;;
11614;SDS011;5863;52.832;4.758;2023-02-03T10:30:49;21.85;;;3.72;;
11614;SDS011;5863;52.832;4.758;2023-02-03T10:33:18;19.02;;;4.05;;
11614;SDS011;5863;52.832;4.758;2023-02-03T10:35:48;22.52;;;4.00;;
11614;SDS011;5863;52.832;4.758;2023-02-03T10:38:22;20.83;;;4.38;;
11614;SDS011;5863;52.832;4.758;2023-02-03T10:40:56;16.40;;;4.03;;
11614;SDS011;5863;52.832;4.758;2023-02-03T10:43:23;20.98;;;3.95;;
11614;SDS011;5863;52.832;4.758;2023-02-03T10:46:09;22.25;;;4.07;;
11614;SDS011;5863;52.832;4.758;2023-02-03T10:48:35;28.48;;;4.53;;
11614;SDS011;5863;52.832;4.758;2023-02-03T10:51:02;20.40;;;5.93;;
11614;SDS011;5863;52.832;4.758;2023-02-03T10:53:31;15.98;;;4.50;;
11614;SDS011;5863;52.832;4.758;2023-02-03T10:56:00;26.20;;;5.22;;
11614;SDS011;5863;52.832;4.758;2023-02-03T10:58:30;22.20;;;4.47;;
11614;SDS011;5863;52.832;4.758;2023-02-03T11:01:03;18.00;;;3.63;;
11614;SDS011;5863;52.832;4.758;2023-02-03T11:03:35;17.80;;;3.92;;
11614;SDS011;5863;52.832;4.758;2023-02-03T11:06:04;23.15;;;4.68;;
11614;SDS011;5863;52.832;4.758;2023-02-03T11:08:33;24.52;;;4.55;;
11614;SDS011;5863;52.832;4.758;2023-02-03T11:11:00;17.38;;;3.67;;
11614;SDS011;5863;52.832;4.758;2023-02-03T11:13:29;21.13;;;4.10;;
11614;SDS011;5863;52.832;4.758;2023-02-03T11:15:56;23.73;;;4.03;;
11614;SDS011;5863;52.832;4.758;2023-02-03T11:18:28;17.60;;;4.15;;
11614;SDS011;5863;52.832;4.758;2023-02-03T11:21:11;20.42;;;4.57;;
11614;SDS011;5863;52.832;4.758;2023-02-03T11:23:48;18.45;;;3.55;;
11614;SDS011;5863;52.832;4.758;2023-02-03T11:26:19;21.83;;;4.55;;
11614;SDS011;5863;52.832;4.758;2023-02-03T11:28:48;18.77;;;4.32;;
11614;SDS011;5863;52.832;4.758;2023-02-03T11:31:17;22.77;;;4.47;;
11614;SDS011;5863;52.832;4.758;2023-02-03T11:33:48;25.58;;;4.60;;
11614;SDS011;5863;52.832;4.758;2023-02-03T11:36:19;22.25;;;4.53;;
11614;SDS011;5863;52.832;4.758;2023-02-03T11:38:45;15.40;;;4.22;;
11614;SDS011;5863;52.832;4.758;2023-02-03T11:41:14;25.60;;;5.28;;
11614;SDS011;5863;52.832;4.758;2023-02-03T11:43:42;21.50;;;4.88;;
11614;SDS011;5863;52.832;4.758;2023-02-03T11:46:09;26.30;;;6.28;;
11614;SDS011;5863;52.832;4.758;2023-02-03T11:48:36;17.38;;;4.60;;
11614;SDS011;5863;52.832;4.758;2023-02-03T11:51:13;21.90;;;5.30;;
11614;SDS011;5863;52.832;4.758;2023-02-03T11:53:53;23.85;;;4.30;;
11614;SDS011;5863;52.832;4.758;2023-02-03T11:56:30;33.75;;;7.82;;
11614;SDS011;5863;52.832;4.758;2023-02-03T11:59:30;25.77;;;6.00;;
11614;SDS011;5863;52.832;4.758;2023-02-03T12:02:37;21.60;;;5.00;;
11614;SDS011;5863;52.832;4.758;2023-02-03T12:05:28;23.38;;;5.05;;
11614;SDS011;5863;52.832;4.758;2023-02-03T12:08:08;28.75;;;5.38;;
11614;SDS011;5863;52.832;4.758;2023-02-03T12:10:48;27.40;;;4.78;;
11614;SDS011;5863;52.832;4.758;2023-02-03T12:13:29;28.77;;;4.63;;
11614;SDS011;5863;52.832;4.758;2023-02-03T12:16:19;26.33;;;4.65;;
11614;SDS011;5863;52.832;4.758;2023-02-03T12:19:05;27.27;;;4.75;;
11614;SDS011;5863;52.832;4.758;2023-02-03T12:21:41;22.98;;;4.68;;
11614;SDS011;5863;52.832;4.758;2023-02-03T12:24:14;26.48;;;4.43;;
11614;SDS011;5863;52.832;4.758;2023-02-03T12:26:52;27.75;;;5.57;;
11614;SDS011;5863;52.832;4.758;2023-02-03T12:29:29;26.08;;;4.97;;
11614;SDS011;5863;52.832;4.758;2023-02-03T12:32:02;27.08;;;4.70;;
11614;SDS011;5863;52.832;4.758;2023-02-03T12:34:35;22.85;;;4.80;;
11614;SDS011;5863;52.832;4.758;2023-02-03T12:37:07;26.05;;;4.28;;
11614;SDS011;5863;52.832;4.758;2023-02-03T12:39:39;30.75;;;4.85;;
11614;SDS011;5863;52.832;4.758;2023-02-03T12:42:11;26.25;;;5.50;;
11614;SDS011;5863;52.832;4.758;2023-02-03T12:44:43;25.05;;;5.13;;
11614;SDS011;5863;52.832;4.758;2023-02-03T12:47:14;32.40;;;5.55;;
11614;SDS011;5863;52.832;4.758;2023-02-03T12:49:48;30.80;;;5.32;;
11614;SDS011;5863;52.832;4.758;2023-02-03T12:52:20;21.10;;;4.80;;
11614;SDS011;5863;52.832;4.758;2023-02-03T12:54:55;22.77;;;5.40;;
11614;SDS011;5863;52.832;4.758;2023-02-03T12:57:29;24.83;;;4.55;;
11614;SDS011;5863;52.832;4.758;2023-02-03T13:00:02;37.63;;;5.93;;
11614;SDS011;5863;52.832;4.758;2023-02-03T13:02:37;33.50;;;4.93;;
11614;SDS011;5863;52.832;4.758;2023-02-03T13:05:16;29.25;;;5.25;;
11614;SDS011;5863;52.832;4.758;2023-02-03T13:07:47;34.97;;;5.88;;
11614;SDS011;5863;52.832;4.758;2023-02-03T13:10:21;28.65;;;5.63;;
11614;SDS011;5863;52.832;4.758;2023-02-03T13:12:55;28.85;;;5.57;;
11614;SDS011;5863;52.832;4.758;2023-02-03T13:15:24;32.20;;;7.07;;
11614;SDS011;5863;52.832;4.758;2023-02-03T13:17:54;37.35;;;7.50;;
11614;SDS011;5863;52.832;4.758;2023-02-03T13:20:27;30.85;;;7.20;;
11614;SDS011;5863;52.832;4.758;2023-02-03T13:22:58;28.95;;;7.75;;
11614;SDS011;5863;52.832;4.758;2023-02-03T13:25:29;32.88;;;8.00;;
11614;SDS011;5863;52.832;4.758;2023-02-03T13:28:06;36.95;;;10.88;;
11614;SDS011;5863;52.832;4.758;2023-02-03T13:30:46;64.13;;;21.23;;
11614;SDS011;5863;52.832;4.758;2023-02-03T13:33:37;56.47;;;15.90;;
11614;SDS011;5863;52.832;4.758;2023-02-03T13:36:26;34.88;;;8.25;;
11614;SDS011;5863;52.832;4.758;2023-02-03T13:39:28;29.88;;;8.25;;
11614;SDS011;5863;52.832;4.758;2023-02-03T13:42:09;36.67;;;8.27;;
11614;SDS011;5863;52.832;4.758;2023-02-03T13:44:45;32.67;;;7.30;;
11614;SDS011;5863;52.832;4.758;2023-02-03T13:47:15;33.75;;;6.65;;
11614;SDS011;5863;52.832;4.758;2023-02-03T13:49:48;34.22;;;7.05;;
11614;SDS011;5863;52.832;4.758;2023-02-03T13:52:22;34.80;;;6.90;;
11614;SDS011;5863;52.832;4.758;2023-02-03T13:54:51;28.05;;;6.65;;
11614;SDS011;5863;52.832;4.758;2023-02-03T13:57:20;29.27;;;5.93;;
11614;SDS011;5863;52.832;4.758;2023-02-03T13:59:47;26.48;;;5.35;;
11614;SDS011;5863;52.832;4.758;2023-02-03T14:02:39;29.75;;;6.10;;
11614;SDS011;5863;52.832;4.758;2023-02-03T14:20:41;28.95;;;4.70;;
11614;SDS011;5863;52.832;4.758;2023-02-03T14:23:14;34.83;;;6.43;;
11614;SDS011;5863;52.832;4.758;2023-02-03T14:25:45;32.38;;;5.25;;
11614;SDS011;5863;52.832;4.758;2023-02-03T14:28:15;38.75;;;7.47;;
11614;SDS011;5863;52.832;4.758;2023-02-03T14:33:56;38.70;;;6.85;;
11614;SDS011;5863;52.832;4.758;2023-02-03T14:36:41;24.40;;;6.10;;
11614;SDS011;5863;52.832;4.758;2023-02-03T14:39:22;34.30;;;6.70;;
11614;SDS011;5863;52.832;4.758;2023-02-03T14:42:08;27.50;;;5.75;;
11614;SDS011;5863;52.832;4.758;2023-02-03T14:44:43;32.15;;;6.25;;
11614;SDS011;5863;52.832;4.758;2023-02-03T14:47:21;35.13;;;6.10;;
11614;SDS011;5863;52.832;4.758;2023-02-03T14:50:02;34.17;;;6.45;;
11614;SDS011;5863;52.832;4.758;2023-02-03T14:52:42;30.20;;;5.82;;
11614;SDS011;5863;52.832;4.758;2023-02-03T14:55:38;28.20;;;6.03;;
11614;SDS011;5863;52.832;4.758;2023-02-03T14:58:15;26.13;;;4.95;;
11614;SDS011;5863;52.832;4.758;2023-02-03T15:00:47;35.72;;;7.60;;
11614;SDS011;5863;52.832;4.758;2023-02-03T15:03:18;27.42;;;6.13;;
11614;SDS011;5863;52.832;4.758;2023-02-03T15:05:49;35.92;;;6.45;;
11614;SDS011;5863;52.832;4.758;2023-02-03T15:08:28;30.85;;;6.22;;
11614;SDS011;5863;52.832;4.758;2023-02-03T15:11:24;28.92;;;6.07;;
11614;SDS011;5863;52.832;4.758;2023-02-03T15:13:53;36.75;;;5.38;;
11614;SDS011;5863;52.832;4.758;2023-02-03T15:16:21;36.63;;;6.28;;
11614;SDS011;5863;52.832;4.758;2023-02-03T15:18:55;34.50;;;5.97;;
11614;SDS011;5863;52.832;4.758;2023-02-03T15:21:24;30.00;;;6.75;;
11614;SDS011;5863;52.832;4.758;2023-02-03T15:23:51;32.33;;;5.85;;
11614;SDS011;5863;52.832;4.758;2023-02-03T15:26:19;30.67;;;5.65;;
11614;SDS011;5863;52.832;4.758;2023-02-03T15:28:54;34.35;;;5.68;;
11614;SDS011;5863;52.832;4.758;2023-02-03T15:31:24;29.42;;;5.18;;
11614;SDS011;5863;52.832;4.758;2023-02-03T15:33:59;26.73;;;5.50;;